Time;durP1;ratioP1;P1;durP2;ratioP2;P2;SDS_P1;SDS_P2;PMS_P1;PMS_P2;Temp;Humidity;BMP_temperature;BMP_pressure;BME280_temperature;BME280_humidity;BME280_pressure;Samples;Min_cycle;Max_cycle;Signal;HPM_P1;HPM_P2
2024/01/20 00:01:29;;;;;;;2.38;2.17;;;;;;;;;;5020706;28;20045;-64
2024/01/20 00:03:56;;;;;;;6.25;1.88;;;;;;;;;;5015607;28;20038;-68
2024/01/20 00:06:22;;;;;;;2.83;2.58;;;;;;;;;;5025832;28;20032;-69
2024/01/20 00:08:48;;;;;;;7.65;2.55;;;;;;;;;;5023847;28;20040;-65
2024/01/20 00:11:14;;;;;;;2.28;2.08;;;;;;;;;;5024567;28;20033;-64
2024/01/20 00:13:40;;;;;;;3.70;1.92;;;;;;;;;;5025648;28;20284;-65
2024/01/20 00:16:07;;;;;;;5.78;1.90;;;;;;;;;;5027227;28;20028;-63
2024/01/20 00:18:33;;;;;;;3.95;1.85;;;;;;;;;;5015150;28;20030;-64
2024/01/20 00:20:59;;;;;;;1.50;1.40;;;;;;;;;;5022181;28;20032;-63
2024/01/20 00:23:25;;;;;;;4.63;2.33;;;;;;;;;;5023874;28;20029;-64
2024/01/20 00:25:52;;;;;;;4.75;1.73;;;;;;;;;;5030715;28;20033;-64
2024/01/20 00:28:18;;;;;;;2.28;1.75;;;;;;;;;;5025445;28;20036;-64
2024/01/20 00:30:45;;;;;;;4.15;1.77;;;;;;;;;;5031376;28;20369;-64
2024/01/20 00:33:11;;;;;;;6.18;2.17;;;;;;;;;;5025772;28;20025;-64
2024/01/20 00:35:42;;;;;;;3.38;2.00;;;;;;;;;;5021642;28;20048;-67
2024/01/20 00:38:08;;;;;;;2.80;1.88;;;;;;;;;;5041105;28;20196;-64
2024/01/20 00:40:34;;;;;;;4.50;1.98;;;;;;;;;;5020971;28;20044;-64
2024/01/20 00:43:01;;;;;;;3.97;1.30;;;;;;;;;;5022087;28;20320;-64
2024/01/20 00:45:27;;;;;;;1.90;1.65;;;;;;;;;;5026944;28;20038;-65
2024/01/20 00:47:53;;;;;;;7.38;3.03;;;;;;;;;;5025593;28;20033;-64
2024/01/20 00:50:19;;;;;;;4.85;1.83;;;;;;;;;;5036752;28;20041;-64
2024/01/20 00:52:45;;;;;;;1.88;1.45;;;;;;;;;;5009848;28;20022;-65
2024/01/20 00:55:12;;;;;;;8.55;2.00;;;;;;;;;;5019522;28;20033;-64
2024/01/20 00:57:38;;;;;;;2.20;1.40;;;;;;;;;;5045455;28;20057;-65
2024/01/20 01:00:09;;;;;;;7.78;1.75;;;;;;;;;;5026062;28;20055;-64
2024/01/20 01:02:35;;;;;;;3.95;2.20;;;;;;;;;;5015248;28;20033;-64
2024/01/20 01:05:01;;;;;;;6.55;2.25;;;;;;;;;;5016666;28;20056;-65
2024/01/20 01:07:28;;;;;;;2.60;2.35;;;;;;;;;;5017159;28;20021;-64
2024/01/20 01:09:54;;;;;;;8.00;2.67;;;;;;;;;;5026068;28;20022;-65
2024/01/20 01:12:20;;;;;;;2.72;1.73;;;;;;;;;;5025084;28;20429;-66
2024/01/20 01:14:46;;;;;;;6.63;2.20;;;;;;;;;;5028426;28;20081;-65
2024/01/20 01:17:12;;;;;;;8.13;1.83;;;;;;;;;;5035960;28;20033;-70
2024/01/20 01:19:39;;;;;;;3.95;1.95;;;;;;;;;;5013895;28;20030;-69
2024/01/20 01:22:05;;;;;;;1.60;1.50;;;;;;;;;;5035552;28;20103;-64
2024/01/20 01:24:31;;;;;;;5.88;1.77;;;;;;;;;;5036661;28;20497;-67
2024/01/20 01:26:57;;;;;;;2.33;1.65;;;;;;;;;;5012208;28;20038;-69
2024/01/20 01:29:23;;;;;;;5.97;1.95;;;;;;;;;;5022081;28;20041;-66
2024/01/20 01:31:49;;;;;;;1.85;1.67;;;;;;;;;;5024309;28;20058;-65
2024/01/20 01:34:16;;;;;;;3.20;1.67;;;;;;;;;;5011573;28;20029;-66
2024/01/20 01:36:42;;;;;;;5.82;2.60;;;;;;;;;;5034473;28;20453;-64
2024/01/20 01:39:09;;;;;;;1.73;1.40;;;;;;;;;;5018873;28;20056;-71
2024/01/20 01:41:35;;;;;;;3.47;1.70;;;;;;;;;;5026637;28;20474;-65
2024/01/20 01:44:02;;;;;;;2.75;2.05;;;;;;;;;;5018475;28;20025;-65
2024/01/20 01:46:29;;;;;;;4.85;1.88;;;;;;;;;;5020437;28;20021;-65
2024/01/20 01:48:55;;;;;;;2.20;2.00;;;;;;;;;;5025074;28;20389;-65
2024/01/20 01:51:21;;;;;;;6.10;2.08;;;;;;;;;;5011785;28;20050;-65
2024/01/20 01:53:48;;;;;;;1.63;1.52;;;;;;;;;;5016098;28;20069;-64
2024/01/20 01:56:15;;;;;;;5.18;1.65;;;;;;;;;;5009651;28;20112;-65
2024/01/20 01:58:44;;;;;;;1.70;1.60;;;;;;;;;;5013593;28;20052;-65
2024/01/20 02:01:10;;;;;;;8.27;1.85;;;;;;;;;;5013969;28;20032;-68
2024/01/20 02:03:36;;;;;;;5.53;1.75;;;;;;;;;;5028326;28;20342;-67
2024/01/20 02:06:02;;;;;;;5.90;1.92;;;;;;;;;;5016455;28;20107;-64
2024/01/20 02:08:29;;;;;;;8.07;2.25;;;;;;;;;;5015035;28;20032;-67
2024/01/20 02:10:55;;;;;;;6.95;2.85;;;;;;;;;;5017968;28;20473;-65
2024/01/20 02:13:21;;;;;;;3.75;1.50;;;;;;;;;;5017170;28;20357;-64
2024/01/20 02:15:48;;;;;;;2.67;1.52;;;;;;;;;;5018846;28;20037;-64
2024/01/20 02:18:14;;;;;;;2.47;1.85;;;;;;;;;;5012301;28;20116;-64
2024/01/20 02:20:40;;;;;;;3.63;1.65;;;;;;;;;;5017935;28;20071;-68
2024/01/20 02:23:06;;;;;;;3.72;1.70;;;;;;;;;;5020538;28;20025;-68
2024/01/20 02:25:32;;;;;;;4.50;1.60;;;;;;;;;;5008864;28;20603;-65
2024/01/20 02:27:59;;;;;;;1.95;1.50;;;;;;;;;;5016306;28;20037;-65
2024/01/20 02:30:25;;;;;;;5.75;2.10;;;;;;;;;;5019011;28;20025;-65
2024/01/20 02:32:51;;;;;;;2.40;2.20;;;;;;;;;;5018089;28;20034;-65
2024/01/20 02:35:21;;;;;;;4.25;2.30;;;;;;;;;;5013289;28;20113;-66
2024/01/20 02:37:47;;;;;;;8.48;2.25;;;;;;;;;;5011518;28;20021;-64
2024/01/20 02:40:13;;;;;;;7.15;2.30;;;;;;;;;;5018493;28;20441;-64
2024/01/20 02:42:39;;;;;;;6.70;1.25;;;;;;;;;;5015445;28;20116;-65
2024/01/20 02:45:06;;;;;;;2.72;1.83;;;;;;;;;;5037571;28;20033;-64
2024/01/20 02:47:32;;;;;;;6.03;2.17;;;;;;;;;;5016440;28;20022;-70
2024/01/20 02:49:58;;;;;;;4.32;2.03;;;;;;;;;;5021246;28;20025;-65
2024/01/20 02:52:24;;;;;;;4.07;1.52;;;;;;;;;;5035247;28;20029;-67
2024/01/20 02:54:51;;;;;;;7.22;2.08;;;;;;;;;;5020379;28;20053;-66
2024/01/20 02:57:17;;;;;;;3.92;2.17;;;;;;;;;;5040886;28;20034;-66
2024/01/20 02:59:43;;;;;;;5.63;1.92;;;;;;;;;;5012211;28;20037;-69
2024/01/20 03:02:10;;;;;;;4.40;1.83;;;;;;;;;;5025113;28;20030;-66
2024/01/20 03:04:36;;;;;;;9.52;2.72;;;;;;;;;;5025324;28;20460;-64
2024/01/20 03:07:02;;;;;;;6.60;3.40;;;;;;;;;;5024861;28;20029;-66
2024/01/20 03:09:29;;;;;;;6.15;2.15;;;;;;;;;;5026832;28;20071;-65
2024/01/20 03:11:55;;;;;;;9.63;2.58;;;;;;;;;;5014084;28;20109;-64
2024/01/20 03:14:21;;;;;;;6.72;2.20;;;;;;;;;;5013222;28;20021;-68
2024/01/20 03:16:47;;;;;;;7.97;2.38;;;;;;;;;;5009813;28;20579;-64
2024/01/20 03:19:13;;;;;;;5.82;2.20;;;;;;;;;;5021168;28;20053;-64
2024/01/20 03:21:40;;;;;;;6.13;2.03;;;;;;;;;;5019958;28;20046;-65
2024/01/20 03:24:06;;;;;;;5.00;2.60;;;;;;;;;;5009884;28;20204;-66
2024/01/20 03:26:32;;;;;;;7.18;2.50;;;;;;;;;;5041797;28;20029;-67
2024/01/20 03:28:58;;;;;;;7.30;2.47;;;;;;;;;;5022209;28;20056;-65
2024/01/20 03:31:25;;;;;;;7.00;3.60;;;;;;;;;;5017289;28;20021;-66
2024/01/20 03:33:51;;;;;;;2.67;1.50;;;;;;;;;;5005453;28;20858;-65
2024/01/20 03:36:17;;;;;;;5.40;2.50;;;;;;;;;;5023982;28;20120;-66
2024/01/20 03:38:44;;;;;;;3.88;1.90;;;;;;;;;;5031553;28;20443;-67
2024/01/20 03:41:10;;;;;;;6.93;2.53;;;;;;;;;;5022884;28;20433;-66
2024/01/20 03:43:36;;;;;;;6.88;2.47;;;;;;;;;;5020630;28;20029;-68
2024/01/20 03:46:02;;;;;;;5.82;2.17;;;;;;;;;;5019304;28;20482;-66
2024/01/20 03:48:29;;;;;;;10.02;2.53;;;;;;;;;;5016175;28;20552;-67
2024/01/20 03:50:55;;;;;;;9.68;2.33;;;;;;;;;;5035737;28;20414;-67
2024/01/20 03:53:24;;;;;;;5.95;2.72;;;;;;;;;;5029678;28;20123;-67
2024/01/20 03:55:51;;;;;;;4.43;1.90;;;;;;;;;;5025326;28;20046;-67
2024/01/20 03:58:17;;;;;;;5.03;2.13;;;;;;;;;;5027600;28;20078;-67
2024/01/20 04:00:43;;;;;;;4.55;2.35;;;;;;;;;;5029525;28;20090;-67
2024/01/20 04:03:10;;;;;;;5.63;2.38;;;;;;;;;;5021699;28;20490;-66
2024/01/20 04:05:37;;;;;;;7.88;2.47;;;;;;;;;;5017703;28;20025;-67
2024/01/20 04:08:03;;;;;;;4.93;2.08;;;;;;;;;;5023495;28;20059;-68
2024/01/20 04:10:29;;;;;;;2.08;1.88;;;;;;;;;;5029557;28;20195;-67
2024/01/20 04:12:55;;;;;;;2.38;1.83;;;;;;;;;;5049651;28;20052;-67
2024/01/20 04:15:22;;;;;;;5.07;2.22;;;;;;;;;;5023787;28;20029;-68
2024/01/20 04:17:52;;;;;;;3.88;2.78;;;;;;;;;;5020886;28;20044;-67
2024/01/20 04:20:18;;;;;;;12.70;3.33;;;;;;;;;;5028062;28;20030;-66
2024/01/20 04:22:44;;;;;;;7.22;1.60;;;;;;;;;;5021085;28;20279;-65
2024/01/20 04:25:11;;;;;;;16.05;2.85;;;;;;;;;;5030756;28;20180;-66
2024/01/20 04:27:40;;;;;;;2.92;2.20;;;;;;;;;;5029108;28;20085;-67
2024/01/20 04:30:08;;;;;;;9.68;2.10;;;;;;;;;;5044443;28;20060;-69
2024/01/20 04:32:34;;;;;;;5.63;2.05;;;;;;;;;;5030661;28;20120;-68
2024/01/20 04:35:00;;;;;;;4.65;2.40;;;;;;;;;;5021252;28;20045;-67
2024/01/20 04:37:26;;;;;;;8.30;2.85;;;;;;;;;;5023717;28;20068;-67
2024/01/20 04:39:52;;;;;;;7.30;2.58;;;;;;;;;;5026757;28;20030;-68
2024/01/20 04:42:19;;;;;;;3.42;1.98;;;;;;;;;;5021200;28;20533;-67
2024/01/20 04:44:45;;;;;;;9.00;3.40;;;;;;;;;;5017848;28;20084;-67
2024/01/20 04:47:11;;;;;;;12.20;2.55;;;;;;;;;;5022223;28;20477;-66
2024/01/20 04:49:37;;;;;;;5.78;2.35;;;;;;;;;;5021928;28;20040;-67
2024/01/20 04:52:04;;;;;;;12.80;2.67;;;;;;;;;;5023159;28;20057;-69
2024/01/20 04:54:30;;;;;;;8.10;2.20;;;;;;;;;;5013334;28;20029;-66
2024/01/20 04:56:57;;;;;;;3.35;1.75;;;;;;;;;;5026172;28;20040;-68
2024/01/20 04:59:24;;;;;;;12.25;2.53;;;;;;;;;;5019992;28;20528;-66
2024/01/20 05:01:50;;;;;;;10.23;1.90;;;;;;;;;;5016100;28;20049;-66
2024/01/20 05:04:16;;;;;;;4.68;1.55;;;;;;;;;;5031839;28;20404;-68
2024/01/20 05:06:45;;;;;;;3.40;2.00;;;;;;;;;;5022362;28;20485;-65
2024/01/20 05:09:13;;;;;;;11.93;3.35;;;;;;;;;;5038339;28;20132;-68
2024/01/20 05:11:39;;;;;;;1.20;1.20;;;;;;;;;;5043983;28;20029;-65
2024/01/20 05:14:06;;;;;;;5.85;1.80;;;;;;;;;;5018678;28;20032;-65
2024/01/20 05:16:33;;;;;;;2.20;1.85;;;;;;;;;;5022423;28;20037;-64
2024/01/20 05:18:59;;;;;;;3.35;2.00;;;;;;;;;;5021085;28;20531;-65
2024/01/20 05:21:25;;;;;;;4.97;2.20;;;;;;;;;;5024390;28;20385;-65
2024/01/20 05:23:51;;;;;;;1.60;1.52;;;;;;;;;;5033488;28;20060;-66
2024/01/20 05:26:18;;;;;;;2.20;1.83;;;;;;;;;;5034243;28;20033;-67
2024/01/20 05:28:44;;;;;;;2.92;1.63;;;;;;;;;;5011889;28;20053;-65
2024/01/20 05:31:11;;;;;;;3.88;1.58;;;;;;;;;;5044382;28;20026;-69
2024/01/20 05:33:37;;;;;;;2.53;1.77;;;;;;;;;;5023267;28;20362;-66
2024/01/20 05:36:03;;;;;;;4.85;1.85;;;;;;;;;;5027840;28;20078;-66
2024/01/20 05:38:29;;;;;;;10.45;2.25;;;;;;;;;;5018641;28;20535;-67
2024/01/20 05:40:56;;;;;;;1.77;1.67;;;;;;;;;;5021002;28;20030;-69
2024/01/20 05:43:23;;;;;;;6.53;2.67;;;;;;;;;;5021911;28;20477;-65
2024/01/20 05:45:49;;;;;;;8.98;2.30;;;;;;;;;;5020992;28;20026;-65
2024/01/20 05:48:15;;;;;;;8.23;2.63;;;;;;;;;;5020285;28;20029;-65
2024/01/20 05:50:41;;;;;;;4.95;2.20;;;;;;;;;;5025122;28;20314;-69
2024/01/20 05:53:07;;;;;;;8.77;2.58;;;;;;;;;;5012696;28;20211;-66
2024/01/20 05:55:34;;;;;;;5.68;1.80;;;;;;;;;;5024135;28;20079;-65
2024/01/20 05:58:00;;;;;;;6.03;1.90;;;;;;;;;;5035553;28;20033;-73
2024/01/20 06:00:26;;;;;;;9.90;2.00;;;;;;;;;;5019367;28;20294;-68
2024/01/20 06:02:52;;;;;;;11.55;2.28;;;;;;;;;;5010365;28;20079;-65
2024/01/20 06:05:19;;;;;;;5.07;2.45;;;;;;;;;;5039773;28;20033;-68
2024/01/20 06:07:45;;;;;;;7.00;2.10;;;;;;;;;;5016562;28;20017;-67
2024/01/20 06:10:11;;;;;;;2.47;2.10;;;;;;;;;;5016598;28;20040;-69
2024/01/20 06:12:38;;;;;;;8.00;2.20;;;;;;;;;;5014993;28;20060;-67
2024/01/20 06:15:04;;;;;;;8.75;2.75;;;;;;;;;;5022200;28;20037;-66
2024/01/20 06:17:30;;;;;;;6.88;2.47;;;;;;;;;;5042507;28;20040;-66
2024/01/20 06:19:56;;;;;;;5.20;2.17;;;;;;;;;;5023808;28;20468;-67
2024/01/20 06:22:23;;;;;;;2.88;2.03;;;;;;;;;;5015097;28;20053;-66
2024/01/20 06:24:49;;;;;;;4.57;1.70;;;;;;;;;;5008602;28;20363;-66
2024/01/20 06:27:15;;;;;;;1.98;1.85;;;;;;;;;;5017740;28;20021;-67
2024/01/20 06:29:42;;;;;;;6.25;2.25;;;;;;;;;;5024453;28;20315;-70
2024/01/20 06:32:08;;;;;;;11.23;2.30;;;;;;;;;;5030122;28;20152;-66
2024/01/20 06:34:34;;;;;;;10.45;2.33;;;;;;;;;;5014646;28;20078;-66
2024/01/20 06:37:01;;;;;;;3.95;2.10;;;;;;;;;;5022931;28;20163;-66
2024/01/20 06:39:27;;;;;;;5.15;2.13;;;;;;;;;;5021784;28;20024;-67
2024/01/20 06:41:53;;;;;;;4.85;2.08;;;;;;;;;;5009499;28;20036;-67
2024/01/20 06:44:21;;;;;;;1.88;1.58;;;;;;;;;;5017791;28;20081;-67
2024/01/20 06:46:48;;;;;;;3.50;1.80;;;;;;;;;;5029732;28;20021;-67
2024/01/20 06:49:18;;;;;;;4.53;2.05;;;;;;;;;;5038942;28;20057;-67
2024/01/20 06:51:44;;;;;;;3.35;1.58;;;;;;;;;;5019997;28;20041;-71
2024/01/20 06:54:11;;;;;;;10.65;2.63;;;;;;;;;;5026220;28;20033;-66
2024/01/20 06:56:37;;;;;;;6.10;2.00;;;;;;;;;;5034203;28;20032;-66
2024/01/20 06:59:04;;;;;;;5.18;1.90;;;;;;;;;;5021476;28;20374;-66
2024/01/20 07:01:30;;;;;;;2.22;1.60;;;;;;;;;;5021754;28;20056;-68
2024/01/20 07:03:57;;;;;;;3.95;1.70;;;;;;;;;;5024686;28;20025;-65
2024/01/20 07:06:24;;;;;;;3.10;2.05;;;;;;;;;;5028841;28;20030;-67
2024/01/20 07:08:51;;;;;;;10.43;2.00;;;;;;;;;;5028098;28;20042;-66
2024/01/20 07:11:18;;;;;;;4.97;1.70;;;;;;;;;;5033513;28;20348;-67
2024/01/20 07:13:45;;;;;;;3.67;2.45;;;;;;;;;;5024330;28;20497;-66
2024/01/20 07:16:11;;;;;;;3.42;1.58;;;;;;;;;;5014811;28;21054;-66
2024/01/20 07:18:38;;;;;;;7.85;2.00;;;;;;;;;;5020222;28;20129;-67
2024/01/20 07:21:05;;;;;;;2.13;1.80;;;;;;;;;;5018338;28;20033;-66
2024/01/20 07:23:31;;;;;;;4.45;2.17;;;;;;;;;;5015768;28;20216;-66
2024/01/20 07:25:58;;;;;;;2.05;1.88;;;;;;;;;;5034622;28;20026;-67
2024/01/20 07:28:25;;;;;;;5.35;1.92;;;;;;;;;;5019376;28;20030;-68
2024/01/20 07:30:51;;;;;;;1.52;1.42;;;;;;;;;;5025014;28;20029;-66
2024/01/20 07:33:18;;;;;;;8.90;2.13;;;;;;;;;;5019875;28;20034;-69
2024/01/20 07:35:44;;;;;;;4.00;2.05;;;;;;;;;;5018823;28;20049;-66
2024/01/20 07:38:11;;;;;;;2.40;1.90;;;;;;;;;;5023017;28;20095;-66
2024/01/20 07:40:37;;;;;;;2.42;1.83;;;;;;;;;;5035803;28;20191;-66
2024/01/20 07:43:03;;;;;;;6.95;1.95;;;;;;;;;;5024529;28;20584;-66
2024/01/20 07:45:31;;;;;;;9.30;2.30;;;;;;;;;;5023037;28;20041;-66
2024/01/20 07:48:01;;;;;;;5.28;1.67;;;;;;;;;;5019489;28;20021;-66
2024/01/20 07:50:28;;;;;;;4.35;1.88;;;;;;;;;;5015367;28;20136;-66
2024/01/20 07:52:55;;;;;;;2.90;1.50;;;;;;;;;;5014680;28;20040;-66
2024/01/20 07:55:21;;;;;;;2.97;2.30;;;;;;;;;;5037875;28;20499;-66
2024/01/20 07:57:47;;;;;;;4.45;1.88;;;;;;;;;;5020854;28;20025;-66
2024/01/20 08:00:14;;;;;;;8.10;2.20;;;;;;;;;;5023387;28;20041;-66
2024/01/20 08:02:41;;;;;;;2.03;1.48;;;;;;;;;;5022222;28;20037;-67
2024/01/20 08:05:07;;;;;;;9.02;2.45;;;;;;;;;;5022813;28;20032;-66
2024/01/20 08:07:34;;;;;;;5.15;1.90;;;;;;;;;;5020506;28;20068;-66
2024/01/20 08:10:00;;;;;;;5.70;2.17;;;;;;;;;;5023846;28;20212;-65
2024/01/20 08:12:26;;;;;;;4.03;1.83;;;;;;;;;;5036034;28;20084;-65
2024/01/20 08:14:53;;;;;;;4.28;2.03;;;;;;;;;;5026148;28;20030;-65
2024/01/20 08:17:20;;;;;;;8.75;3.20;;;;;;;;;;5021645;28;20034;-67
2024/01/20 08:19:46;;;;;;;3.15;1.90;;;;;;;;;;5022077;28;20029;-69
2024/01/20 08:22:15;;;;;;;4.80;2.47;;;;;;;;;;5020461;28;20226;-66
2024/01/20 08:24:41;;;;;;;4.43;1.52;;;;;;;;;;5023302;28;20109;-66
2024/01/20 08:27:07;;;;;;;7.28;2.30;;;;;;;;;;5016156;28;20034;-65
2024/01/20 08:29:34;;;;;;;3.10;1.52;;;;;;;;;;5016385;28;20452;-66
2024/01/20 08:32:00;;;;;;;4.40;2.03;;;;;;;;;;5030364;28;20060;-67
2024/01/20 08:34:26;;;;;;;6.93;2.20;;;;;;;;;;5029770;28;20034;-66
2024/01/20 08:36:53;;;;;;;6.13;2.33;;;;;;;;;;5035993;28;20070;-66
2024/01/20 08:39:19;;;;;;;7.97;2.35;;;;;;;;;;5017275;28;20382;-66
2024/01/20 08:41:46;;;;;;;9.88;2.65;;;;;;;;;;5036949;28;20424;-66
2024/01/20 08:44:12;;;;;;;3.42;2.00;;;;;;;;;;5021710;28;20038;-67
2024/01/20 08:46:38;;;;;;;2.70;1.75;;;;;;;;;;5017717;28;20029;-66
2024/01/20 08:49:05;;;;;;;5.93;2.33;;;;;;;;;;5026937;28;20484;-71
2024/01/20 08:51:31;;;;;;;6.60;1.70;;;;;;;;;;5011949;28;20137;-65
2024/01/20 08:53:57;;;;;;;3.45;2.13;;;;;;;;;;5019654;28;20338;-66
2024/01/20 08:56:23;;;;;;;6.90;2.78;;;;;;;;;;5022233;28;20369;-65
2024/01/20 08:58:49;;;;;;;9.68;2.78;;;;;;;;;;5018806;28;20039;-66
2024/01/20 09:01:17;;;;;;;3.35;2.33;;;;;;;;;;5017920;28;20032;-67
2024/01/20 09:03:43;;;;;;;7.03;2.03;;;;;;;;;;5015870;28;20399;-66
2024/01/20 09:06:12;;;;;;;4.75;1.98;;;;;;;;;;5017239;28;20057;-66
2024/01/20 09:08:39;;;;;;;8.18;1.60;;;;;;;;;;5023333;28;20120;-66
2024/01/20 09:11:05;;;;;;;2.72;1.92;;;;;;;;;;5026709;28;20017;-66
2024/01/20 09:13:31;;;;;;;7.35;1.92;;;;;;;;;;5021834;28;20088;-67
2024/01/20 09:15:57;;;;;;;3.17;2.45;;;;;;;;;;5032762;28;20087;-70
2024/01/20 09:18:23;;;;;;;13.98;2.95;;;;;;;;;;5056078;28;20045;-66
2024/01/20 09:20:50;;;;;;;4.40;1.90;;;;;;;;;;5031799;28;20621;-66
2024/01/20 09:23:16;;;;;;;3.10;2.00;;;;;;;;;;5025236;28;20353;-67
2024/01/20 09:25:42;;;;;;;7.72;2.90;;;;;;;;;;5045566;28;20136;-66
2024/01/20 09:28:09;;;;;;;3.92;1.98;;;;;;;;;;5039319;28;20037;-66
2024/01/20 09:30:35;;;;;;;4.78;1.67;;;;;;;;;;5023145;28;20064;-67
2024/01/20 09:33:04;;;;;;;1.95;1.75;;;;;;;;;;5034488;28;20036;-67
2024/01/20 09:35:31;;;;;;;3.95;1.88;;;;;;;;;;5031232;28;20021;-66
2024/01/20 09:38:00;;;;;;;2.42;1.88;;;;;;;;;;5041241;28;20056;-66
2024/01/20 09:40:26;;;;;;;5.50;2.10;;;;;;;;;;5032886;28;20068;-67
2024/01/20 09:42:53;;;;;;;2.10;1.70;;;;;;;;;;5015977;28;20089;-67
2024/01/20 09:45:19;;;;;;;2.50;1.95;;;;;;;;;;5029076;28;20035;-67
2024/01/20 09:47:45;;;;;;;9.23;1.70;;;;;;;;;;5026406;28;20029;-66
2024/01/20 09:50:12;;;;;;;3.63;1.50;;;;;;;;;;5037100;28;20049;-67
2024/01/20 09:53:00;;;;;;;2.05;1.85;;;;;;;;;;5025710;28;20029;-66
2024/01/20 09:55:27;;;;;;;5.00;2.00;;;;;;;;;;5028173;28;20134;-70
2024/01/20 09:57:54;;;;;;;2.05;1.95;;;;;;;;;;5028031;28;20029;-69
2024/01/20 10:00:21;;;;;;;5.72;1.85;;;;;;;;;;5018990;28;20071;-70
2024/01/20 10:02:47;;;;;;;1.40;1.40;;;;;;;;;;5020508;28;20033;-69
2024/01/20 10:05:15;;;;;;;4.05;1.90;;;;;;;;;;5043166;28;20029;-69
2024/01/20 10:07:42;;;;;;;1.80;1.70;;;;;;;;;;5046582;28;20473;-69
2024/01/20 10:10:09;;;;;;;2.33;2.08;;;;;;;;;;5031600;28;20033;-69
2024/01/20 10:12:36;;;;;;;4.53;1.80;;;;;;;;;;5025158;28;20037;-69
2024/01/20 10:15:03;;;;;;;1.77;1.67;;;;;;;;;;5028816;28;20922;-69
2024/01/20 10:17:30;;;;;;;1.95;1.85;;;;;;;;;;5031658;28;20029;-72
2024/01/20 10:19:56;;;;;;;1.55;1.33;;;;;;;;;;5024765;28;20126;-69
2024/01/20 10:22:22;;;;;;;1.52;1.42;;;;;;;;;;5041611;28;20026;-70
2024/01/20 10:24:49;;;;;;;1.38;1.27;;;;;;;;;;5022926;28;20037;-70
2024/01/20 10:27:18;;;;;;;1.45;1.35;;;;;;;;;;5028863;28;20017;-69
2024/01/20 10:29:48;;;;;;;1.33;1.30;;;;;;;;;;5024559;28;20034;-69
2024/01/20 10:32:14;;;;;;;2.88;1.83;;;;;;;;;;5013958;28;20036;-69
2024/01/20 10:34:42;;;;;;;3.17;1.70;;;;;;;;;;5024720;28;20025;-71
2024/01/20 10:37:12;;;;;;;1.23;1.20;;;;;;;;;;5032474;28;20025;-69
2024/01/20 10:39:42;;;;;;;1.42;1.33;;;;;;;;;;5045511;28;20476;-69
2024/01/20 10:42:15;;;;;;;3.03;1.40;;;;;;;;;;5031494;28;20108;-69
2024/01/20 10:44:55;;;;;;;3.72;1.65;;;;;;;;;;5029830;28;20041;-69
2024/01/20 10:47:38;;;;;;;1.48;1.33;;;;;;;;;;5030390;28;20081;-69
2024/01/20 10:50:05;;;;;;;3.42;1.73;;;;;;;;;;5027351;28;20040;-69
2024/01/20 10:52:36;;;;;;;1.67;1.58;;;;;;;;;;5023840;28;20022;-70
2024/01/20 10:55:03;;;;;;;2.33;1.55;;;;;;;;;;5032496;28;20035;-73
2024/01/20 10:57:29;;;;;;;3.20;1.35;;;;;;;;;;5022312;28;20025;-69
2024/01/20 10:59:57;;;;;;;2.42;1.52;;;;;;;;;;5044156;28;20052;-69
2024/01/20 11:02:24;;;;;;;2.28;1.50;;;;;;;;;;5035726;28;20044;-69
2024/01/20 11:04:50;;;;;;;1.40;1.30;;;;;;;;;;5027951;28;20037;-69
2024/01/20 11:07:23;;;;;;;4.03;1.50;;;;;;;;;;5022124;28;20055;-69
2024/01/20 11:09:57;;;;;;;2.78;1.42;;;;;;;;;;5023838;28;20532;-69
2024/01/20 11:12:24;;;;;;;1.73;1.65;;;;;;;;;;5011316;28;20109;-70
2024/01/20 11:14:51;;;;;;;1.83;1.73;;;;;;;;;;5018696;28;20094;-68
2024/01/20 11:17:18;;;;;;;1.42;1.38;;;;;;;;;;5016132;28;20510;-70
2024/01/20 11:19:44;;;;;;;1.30;1.30;;;;;;;;;;5025142;28;20033;-70
2024/01/20 11:22:30;;;;;;;1.30;1.27;;;;;;;;;;5021373;28;20497;-73
2024/01/20 11:24:56;;;;;;;1.42;1.35;;;;;;;;;;5013886;28;20025;-69
2024/01/20 11:27:22;;;;;;;1.55;1.45;;;;;;;;;;5027026;28;20021;-69
2024/01/20 11:29:49;;;;;;;1.42;1.33;;;;;;;;;;5026736;28;20406;-72
2024/01/20 11:32:18;;;;;;;1.42;1.30;;;;;;;;;;5018739;28;20489;-70
2024/01/20 11:34:44;;;;;;;3.95;1.70;;;;;;;;;;5021252;28;20501;-69
2024/01/20 11:37:10;;;;;;;2.03;1.38;;;;;;;;;;5022900;28;20265;-70
2024/01/20 11:39:36;;;;;;;2.70;1.48;;;;;;;;;;5024488;28;20047;-69
2024/01/20 11:42:03;;;;;;;1.27;1.27;;;;;;;;;;5039735;28;20096;-70
2024/01/20 11:44:31;;;;;;;1.65;1.55;;;;;;;;;;5023037;28;20453;-69
2024/01/20 11:47:00;;;;;;;3.83;1.40;;;;;;;;;;5034915;28;20029;-70
2024/01/20 11:49:26;;;;;;;1.50;1.38;;;;;;;;;;5027794;28;20497;-70
2024/01/20 11:51:53;;;;;;;1.30;1.30;;;;;;;;;;5029944;28;20061;-70
2024/01/20 11:54:19;;;;;;;2.03;1.38;;;;;;;;;;5016890;28;20105;-69
2024/01/20 11:56:45;;;;;;;1.65;1.55;;;;;;;;;;5029538;28;20467;-70
2024/01/20 11:59:14;;;;;;;1.48;1.38;;;;;;;;;;5036383;28;20033;-70
2024/01/20 12:01:42;;;;;;;4.78;1.50;;;;;;;;;;5036967;28;20049;-71
2024/01/20 12:04:08;;;;;;;1.92;1.83;;;;;;;;;;5023220;28;20021;-74
2024/01/20 12:06:35;;;;;;;7.95;1.98;;;;;;;;;;5026560;28;20418;-71
2024/01/20 12:09:03;;;;;;;2.60;1.30;;;;;;;;;;5028189;28;20034;-72
2024/01/20 12:11:30;;;;;;;1.48;1.38;;;;;;;;;;5020000;28;20034;-71
2024/01/20 12:13:56;;;;;;;1.27;1.27;;;;;;;;;;5043001;28;20390;-72
2024/01/20 12:16:22;;;;;;;1.50;1.40;;;;;;;;;;5025801;28;20112;-72
2024/01/20 12:18:48;;;;;;;1.48;1.38;;;;;;;;;;5029050;28;20033;-71
2024/01/20 12:21:17;;;;;;;4.07;1.85;;;;;;;;;;5032245;28;20301;-71
2024/01/20 12:23:44;;;;;;;1.67;1.58;;;;;;;;;;5022662;28;20125;-70
2024/01/20 12:26:13;;;;;;;1.65;1.35;;;;;;;;;;5028197;28;20030;-71
2024/01/20 12:28:40;;;;;;;1.45;1.35;;;;;;;;;;5024328;28;20030;-70
2024/01/20 12:31:06;;;;;;;2.60;1.52;;;;;;;;;;5020959;28;20433;-70
2024/01/20 12:33:32;;;;;;;1.50;1.40;;;;;;;;;;5027586;28;20050;-70
2024/01/20 12:35:58;;;;;;;1.08;1.08;;;;;;;;;;5032715;28;20035;-71
2024/01/20 12:38:24;;;;;;;1.10;1.10;;;;;;;;;;5025726;28;20477;-70
2024/01/20 12:40:51;;;;;;;1.88;1.50;;;;;;;;;;5032208;28;20033;-73
2024/01/20 12:43:17;;;;;;;1.30;1.30;;;;;;;;;;5029501;28;20034;-70
2024/01/20 12:45:43;;;;;;;1.77;1.67;;;;;;;;;;5047407;28;20484;-70
2024/01/20 12:48:10;;;;;;;2.28;1.45;;;;;;;;;;5027368;28;20121;-73
2024/01/20 12:50:36;;;;;;;7.10;1.40;;;;;;;;;;5031843;28;21015;-74
2024/01/20 12:53:03;;;;;;;1.55;1.45;;;;;;;;;;5026380;28;20072;-71
2024/01/20 12:55:30;;;;;;;1.88;1.42;;;;;;;;;;5020725;28;20029;-71
2024/01/20 12:57:56;;;;;;;1.55;1.45;;;;;;;;;;5018577;28;20124;-71
2024/01/20 13:00:23;;;;;;;1.67;1.58;;;;;;;;;;5021108;28;20068;-71
2024/01/20 13:02:52;;;;;;;3.50;1.83;;;;;;;;;;5023872;28;20054;-71
2024/01/20 13:05:18;;;;;;;1.58;1.48;;;;;;;;;;5024998;28;20034;-70
2024/01/20 13:07:44;;;;;;;3.35;1.63;;;;;;;;;;5020991;28;20487;-70
2024/01/20 13:10:11;;;;;;;1.38;1.35;;;;;;;;;;5026588;28;20440;-71
2024/01/20 13:12:40;;;;;;;1.60;1.50;;;;;;;;;;5028647;28;20025;-71
2024/01/20 13:15:06;;;;;;;1.75;1.40;;;;;;;;;;5025047;28;20056;-70
2024/01/20 13:17:32;;;;;;;2.10;1.60;;;;;;;;;;5018655;28;20052;-71
2024/01/20 13:19:59;;;;;;;1.45;1.30;;;;;;;;;;5022303;28;20022;-70
2024/01/20 13:22:26;;;;;;;1.55;1.50;;;;;;;;;;5036033;28;20029;-70
2024/01/20 13:24:53;;;;;;;2.00;1.50;;;;;;;;;;5020355;28;20031;-70
2024/01/20 13:27:23;;;;;;;2.83;1.40;;;;;;;;;;5028687;28;20017;-71
2024/01/20 13:29:49;;;;;;;1.90;1.35;;;;;;;;;;5031412;28;20025;-70
2024/01/20 13:32:16;;;;;;;1.65;1.55;;;;;;;;;;5031053;28;20029;-72
2024/01/20 13:34:42;;;;;;;1.52;1.40;;;;;;;;;;5028135;28;20093;-71
2024/01/20 13:37:08;;;;;;;1.50;1.42;;;;;;;;;;5031485;28;20532;-70
2024/01/20 13:39:35;;;;;;;5.47;2.25;;;;;;;;;;5022732;28;20044;-70
2024/01/20 13:42:01;;;;;;;2.95;1.50;;;;;;;;;;5023761;28;20029;-70
2024/01/20 13:44:28;;;;;;;1.33;1.30;;;;;;;;;;5022071;28;20053;-70
2024/01/20 13:46:54;;;;;;;3.42;2.00;;;;;;;;;;5023195;28;20453;-70
2024/01/20 13:49:20;;;;;;;1.70;1.40;;;;;;;;;;5022331;28;20029;-70
2024/01/20 13:51:46;;;;;;;2.33;1.50;;;;;;;;;;5021282;28;20120;-70
2024/01/20 13:54:13;;;;;;;1.88;1.52;;;;;;;;;;5027468;28;20029;-70
2024/01/20 13:56:39;;;;;;;3.78;2.38;;;;;;;;;;5019413;28;20611;-70
2024/01/20 13:59:05;;;;;;;2.42;1.55;;;;;;;;;;5040034;28;20025;-69
2024/01/20 14:01:31;;;;;;;3.78;1.63;;;;;;;;;;5021148;28;20041;-69
2024/01/20 14:04:00;;;;;;;3.42;1.85;;;;;;;;;;5021938;28;20084;-69
2024/01/20 14:06:26;;;;;;;1.30;1.17;;;;;;;;;;5044194;28;20086;-70
2024/01/20 14:08:53;;;;;;;2.80;1.55;;;;;;;;;;5022027;28;20474;-69
2024/01/20 14:11:19;;;;;;;3.58;1.70;;;;;;;;;;5018527;28;20032;-70
2024/01/20 14:13:45;;;;;;;1.35;1.35;;;;;;;;;;5013730;28;20438;-69
2024/01/20 14:16:11;;;;;;;3.15;1.80;;;;;;;;;;5022975;28;20634;-71
2024/01/20 14:18:38;;;;;;;2.20;1.50;;;;;;;;;;5025660;28;20384;-71
2024/01/20 14:21:04;;;;;;;1.63;1.52;;;;;;;;;;5018866;28;20514;-70
2024/01/20 14:23:30;;;;;;;1.80;1.50;;;;;;;;;;5039206;28;20124;-70
2024/01/20 14:25:57;;;;;;;1.65;1.40;;;;;;;;;;5029003;28;20079;-69
2024/01/20 14:28:23;;;;;;;1.20;1.20;;;;;;;;;;5018187;28;20060;-70
2024/01/20 14:30:50;;;;;;;4.22;1.63;;;;;;;;;;5028304;28;20071;-70
2024/01/20 14:33:16;;;;;;;3.00;1.90;;;;;;;;;;5016798;28;20120;-69
2024/01/20 14:35:42;;;;;;;3.45;2.13;;;;;;;;;;5017598;28;20037;-71
2024/01/20 14:38:08;;;;;;;1.35;1.30;;;;;;;;;;5019537;28;20044;-71
2024/01/20 14:40:35;;;;;;;1.60;1.50;;;;;;;;;;5035566;28;20056;-70